Time;durP1;ratioP1;P1;durP2;ratioP2;P2;SDS_P1;SDS_P2;PMS_P1;PMS_P2;Temp;Humidity;BMP_temperature;BMP_pressure;BME280_temperature;BME280_humidity;BME280_pressure;Samples;Min_cycle;Max_cycle;Signal;HPM_P1;HPM_P2
2023/07/04 00:00:43;;;;;;;6.40;3.50;;;17.70;63.40;;;;;;5053114;28;20491;-59
2023/07/04 00:03:10;;;;;;;10.97;4.33;;;17.70;62.80;;;;;;5053112;28;20452;-59
2023/07/04 00:05:38;;;;;;;8.77;3.97;;;17.80;62.60;;;;;;5053040;28;20444;-58
2023/07/04 00:08:05;;;;;;;7.67;4.40;;;17.80;62.30;;;;;;5052942;28;20448;-58
2023/07/04 00:10:32;;;;;;;8.90;4.30;;;17.80;62.10;;;;;;5053029;28;20471;-58
2023/07/04 00:12:58;;;;;;;8.20;3.60;;;17.80;62.00;;;;;;5053014;28;20440;-59
2023/07/04 00:15:27;;;;;;;7.00;3.40;;;17.80;62.00;;;;;;5052966;28;20452;-59
2023/07/04 00:17:53;;;;;;;9.30;4.20;;;17.80;62.10;;;;;;5052541;28;20479;-59
2023/07/04 00:20:20;;;;;;;8.50;4.80;;;17.80;62.20;;;;;;5052881;28;20463;-58
2023/07/04 00:22:47;;;;;;;6.43;4.10;;;17.80;62.20;;;;;;5053651;28;20448;-59
2023/07/04 00:25:14;;;;;;;9.70;4.57;;;17.80;62.30;;;;;;5052870;28;20497;-58
2023/07/04 00:27:41;;;;;;;8.43;3.10;;;17.70;62.20;;;;;;5055122;28;20437;-58
2023/07/04 00:30:10;;;;;;;11.57;3.47;;;17.70;62.30;;;;;;5057517;28;20464;-59
2023/07/04 00:32:38;;;;;;;10.90;5.00;;;17.70;62.20;;;;;;5057219;28;20448;-59
2023/07/04 00:35:06;;;;;;;7.40;3.80;;;17.70;62.20;;;;;;5056623;28;20440;-58
2023/07/04 00:37:33;;;;;;;7.37;3.70;;;17.70;62.00;;;;;;5056683;28;20571;-59
2023/07/04 00:40:01;;;;;;;8.47;3.47;;;17.70;63.80;;;;;;5056728;28;20472;-59
2023/07/04 00:42:29;;;;;;;6.67;3.40;;;17.50;65.00;;;;;;5057208;28;20478;-58
2023/07/04 00:44:58;;;;;;;6.73;3.03;;;17.30;67.40;;;;;;5056733;28;20502;-58
2023/07/04 00:47:33;;;;;;;10.37;3.20;;;17.10;68.90;;;;;;5056943;28;20498;-58
2023/07/04 00:50:07;;;;;;;10.00;3.30;;;16.90;71.30;;;;;;5056707;28;20478;-58
2023/07/04 00:52:37;;;;;;;6.53;3.60;;;16.70;72.20;;;;;;5056653;28;20509;-58
2023/07/04 00:55:08;;;;;;;8.00;3.07;;;16.70;73.80;;;;;;5056658;28;20455;-58
2023/07/04 00:57:37;;;;;;;6.27;2.73;;;16.60;74.90;;;;;;5056091;28;20468;-59
2023/07/04 01:00:15;;;;;;;5.60;2.90;;;16.50;77.00;;;;;;5056243;28;20472;-58
2023/07/04 01:02:45;;;;;;;7.07;3.23;;;16.50;78.10;;;;;;5056368;28;20828;-57
2023/07/04 01:05:19;;;;;;;7.90;3.70;;;16.40;79.90;;;;;;5056237;28;20433;-57
2023/07/04 01:07:53;;;;;;;6.10;2.93;;;16.40;81.60;;;;;;5056139;28;20433;-58
2023/07/04 01:10:25;;;;;;;6.27;3.07;;;16.30;82.90;;;;;;5056097;28;20467;-58
2023/07/04 01:12:52;;;;;;;7.70;2.87;;;16.30;84.90;;;;;;5055790;28;20913;-59
2023/07/04 01:15:23;;;;;;;6.27;2.27;;;16.20;85.80;;;;;;5056009;28;20463;-58
2023/07/04 01:17:51;;;;;;;10.80;2.90;;;16.20;86.90;;;;;;5056043;28;20471;-59
2023/07/04 01:20:20;;;;;;;6.07;2.13;;;16.10;87.60;;;;;;5055985;28;20475;-58
2023/07/04 01:22:56;;;;;;;3.00;2.30;;;16.10;88.40;;;;;;5056096;28;20454;-58
2023/07/04 01:25:31;;;;;;;4.57;2.57;;;16.00;88.60;;;;;;5056458;28;20423;-59
2023/07/04 01:28:02;;;;;;;5.97;2.23;;;16.00;89.40;;;;;;5056353;28;20515;-58
2023/07/04 01:30:31;;;;;;;3.90;1.90;;;16.00;89.40;;;;;;5055965;28;20467;-58
2023/07/04 01:32:59;;;;;;;3.50;1.93;;;15.90;89.50;;;;;;5056057;28;20506;-57
2023/07/04 01:35:27;;;;;;;3.93;1.97;;;15.90;89.70;;;;;;5056171;28;20455;-56
2023/07/04 01:37:55;;;;;;;5.13;1.83;;;15.80;90.00;;;;;;5056390;28;20480;-57
2023/07/04 01:40:22;;;;;;;3.70;1.60;;;15.80;90.10;;;;;;5054967;28;20495;-58
2023/07/04 01:42:49;;;;;;;2.93;1.23;;;15.70;90.20;;;;;;5056153;28;20455;-57
2023/07/04 01:45:17;;;;;;;1.60;1.27;;;15.60;90.20;;;;;;5055351;28;20983;-58
2023/07/04 01:47:44;;;;;;;2.70;1.30;;;15.50;90.60;;;;;;5055288;28;20934;-58
2023/07/04 01:50:13;;;;;;;3.20;1.70;;;15.40;91.00;;;;;;5055175;28;20467;-57
2023/07/04 01:52:41;;;;;;;4.80;1.10;;;15.30;92.00;;;;;;5055853;28;20448;-58
2023/07/04 01:55:09;;;;;;;2.60;1.23;;;15.10;94.10;;;;;;5055453;28;20448;-58
2023/07/04 01:57:36;;;;;;;2.63;1.43;;;14.70;98.00;;;;;;5055257;28;20487;-56
2023/07/04 02:00:04;;;;;;;2.73;1.63;;;14.30;99.90;;;;;;5055274;28;20464;-57
2023/07/04 02:02:33;;;;;;;2.80;1.77;;;14.00;99.90;;;;;;5055014;28;20539;-57
2023/07/04 02:04:59;;;;;;;2.97;1.90;;;13.80;99.90;;;;;;5054818;28;20822;-57
2023/07/04 02:07:26;;;;;;;2.93;1.60;;;13.70;99.90;;;;;;5055156;28;20440;-57
2023/07/04 02:09:53;;;;;;;2.70;1.43;;;13.70;99.90;;;;;;5055188;28;20471;-58
2023/07/04 02:12:19;;;;;;;1.67;1.37;;;13.70;99.90;;;;;;5055860;28;20451;-57
2023/07/04 02:14:46;;;;;;;3.90;1.37;;;13.70;99.90;;;;;;5054877;28;20452;-57
2023/07/04 02:17:13;;;;;;;4.67;1.53;;;13.70;99.90;;;;;;5055035;28;20476;-58
2023/07/04 02:19:41;;;;;;;2.50;1.63;;;13.70;99.90;;;;;;5055012;28;20490;-57
2023/07/04 02:22:08;;;;;;;2.83;2.00;;;13.70;99.90;;;;;;5055335;28;20447;-57
2023/07/04 02:24:35;;;;;;;4.97;1.70;;;13.70;99.90;;;;;;5055395;28;20444;-58
2023/07/04 02:27:02;;;;;;;3.40;1.80;;;13.70;99.90;;;;;;5055307;28;20444;-57
2023/07/04 02:29:29;;;;;;;4.50;1.60;;;13.80;99.90;;;;;;5054728;28;21001;-57
2023/07/04 02:31:55;;;;;;;2.53;1.70;;;13.80;99.90;;;;;;5054535;28;21013;-57
2023/07/04 02:34:22;;;;;;;1.63;1.37;;;13.80;99.90;;;;;;5054544;28;20448;-58
2023/07/04 02:36:50;;;;;;;2.43;1.53;;;13.90;99.90;;;;;;5054504;28;20444;-57
2023/07/04 02:39:17;;;;;;;4.10;1.30;;;13.90;99.90;;;;;;5054290;28;20471;-58
2023/07/04 02:41:44;;;;;;;2.20;1.40;;;13.90;99.90;;;;;;5054332;28;20891;-57
2023/07/04 02:44:10;;;;;;;2.60;1.53;;;13.90;99.90;;;;;;5054152;28;20826;-57
2023/07/04 02:46:37;;;;;;;2.10;1.77;;;14.00;99.90;;;;;;5054294;28;20444;-56
2023/07/04 02:49:05;;;;;;;2.10;1.30;;;14.00;99.90;;;;;;5054231;28;20455;-57
2023/07/04 02:51:32;;;;;;;3.73;1.53;;;14.00;99.90;;;;;;5053232;28;20448;-57
2023/07/04 02:54:00;;;;;;;1.80;1.37;;;14.10;99.90;;;;;;5054767;28;20448;-57
2023/07/04 02:56:27;;;;;;;2.00;1.43;;;14.10;99.90;;;;;;5054208;28;20451;-57
2023/07/04 02:58:54;;;;;;;2.33;1.10;;;14.10;99.90;;;;;;5054073;28;20483;-58
2023/07/04 03:01:21;;;;;;;1.80;1.30;;;14.10;99.90;;;;;;5054003;28;20468;-58
2023/07/04 03:03:47;;;;;;;4.03;1.60;;;14.10;99.90;;;;;;5053793;28;20451;-57
2023/07/04 03:06:14;;;;;;;3.43;1.30;;;14.10;99.90;;;;;;5054052;28;20448;-56
2023/07/04 03:08:41;;;;;;;2.17;1.27;;;14.20;99.90;;;;;;5054006;28;20448;-57
2023/07/04 03:11:09;;;;;;;1.63;1.33;;;14.20;99.90;;;;;;5053547;28;20467;-56
2023/07/04 03:13:35;;;;;;;1.60;1.03;;;14.20;99.90;;;;;;5053801;28;20475;-56
2023/07/04 03:16:02;;;;;;;1.97;1.33;;;14.20;99.90;;;;;;5053794;28;20440;-58
2023/07/04 03:18:29;;;;;;;3.47;1.33;;;14.20;99.90;;;;;;5053745;28;20476;-57
2023/07/04 03:20:56;;;;;;;2.57;1.27;;;14.30;99.90;;;;;;5053672;28;20456;-57
2023/07/04 03:23:22;;;;;;;1.30;1.10;;;14.30;99.90;;;;;;5054785;28;20448;-57
2023/07/04 03:25:49;;;;;;;3.43;1.57;;;14.30;99.90;;;;;;5053912;28;20440;-56
2023/07/04 03:28:17;;;;;;;2.30;1.37;;;14.30;99.90;;;;;;5053708;28;20949;-55
2023/07/04 03:30:44;;;;;;;2.67;1.20;;;14.30;99.90;;;;;;5053355;28;20475;-56
2023/07/04 03:33:11;;;;;;;4.27;1.77;;;14.40;99.90;;;;;;5054080;28;20444;-56
2023/07/04 03:35:38;;;;;;;5.80;1.63;;;14.40;99.90;;;;;;5055201;28;20444;-56
2023/07/04 03:38:05;;;;;;;1.43;1.33;;;14.40;99.90;;;;;;5054982;28;20476;-56
2023/07/04 03:40:31;;;;;;;4.73;1.60;;;14.30;99.90;;;;;;5053203;28;20479;-56
2023/07/04 03:42:58;;;;;;;3.07;1.47;;;14.20;99.90;;;;;;5053564;28;20451;-56
2023/07/04 03:45:26;;;;;;;2.60;1.40;;;14.10;99.90;;;;;;5053338;28;20444;-56
2023/07/04 03:47:53;;;;;;;1.97;1.50;;;14.00;99.90;;;;;;5053744;28;20455;-57
2023/07/04 03:50:20;;;;;;;4.33;1.87;;;14.00;99.90;;;;;;5053245;28;20555;-56
2023/07/04 03:52:46;;;;;;;3.93;1.90;;;13.90;99.90;;;;;;5053605;28;20452;-57
2023/07/04 03:55:13;;;;;;;2.83;1.83;;;13.90;99.90;;;;;;5053047;28;20946;-57
2023/07/04 03:57:40;;;;;;;3.10;2.10;;;13.90;99.90;;;;;;5053458;28;20483;-58
2023/07/04 04:00:09;;;;;;;4.60;1.90;;;13.90;99.90;;;;;;5053149;28;20464;-58
2023/07/04 04:02:37;;;;;;;6.07;2.13;;;14.00;99.90;;;;;;5053382;28;20444;-58
2023/07/04 04:05:04;;;;;;;5.03;1.97;;;14.00;99.90;;;;;;5053612;28;20444;-57
2023/07/04 04:07:31;;;;;;;3.57;1.70;;;14.00;99.90;;;;;;5054397;28;20450;-56
2023/07/04 04:12:09;;;;;;;1.60;1.50;;;14.10;99.90;;;;;;5111509;27;20588;-56
2023/07/04 04:14:37;;;;;;;5.03;2.40;;;14.10;99.90;;;;;;5111502;28;20442;-58
2023/07/04 04:17:05;;;;;;;2.27;1.60;;;14.30;99.90;;;;;;5111165;28;20449;-58
2023/07/04 04:19:32;;;;;;;4.10;1.70;;;14.80;99.90;;;;;;5111725;28;20461;-58
2023/07/04 04:21:59;;;;;;;2.73;1.63;;;15.40;99.90;;;;;;5111076;28;20441;-57
2023/07/04 04:24:25;;;;;;;3.60;1.60;;;15.90;99.90;;;;;;5110928;28;20446;-59
2023/07/04 04:26:52;;;;;;;8.03;2.00;;;16.40;99.90;;;;;;5110946;28;20456;-59
2023/07/04 04:29:22;;;;;;;3.00;1.73;;;16.80;99.90;;;;;;5110980;28;20445;-57
2023/07/04 04:31:49;;;;;;;2.23;1.20;;;16.90;99.90;;;;;;5110458;28;20480;-59
2023/07/04 04:34:17;;;;;;;3.07;1.40;;;16.90;99.90;;;;;;5110733;28;20446;-58
2023/07/04 04:36:44;;;;;;;3.73;1.93;;;17.10;99.90;;;;;;5110573;28;20494;-58
2023/07/04 04:39:11;;;;;;;2.50;1.37;;;17.20;99.90;;;;;;5110487;28;20440;-59
2023/07/04 04:41:38;;;;;;;4.67;1.50;;;17.00;99.90;;;;;;5094773;22;20872;-57
2023/07/04 04:44:05;;;;;;;4.63;1.90;;;16.90;99.90;;;;;;5070127;28;20435;-58
2023/07/04 04:46:34;;;;;;;2.70;1.20;;;16.90;99.90;;;;;;5070082;28;20449;-58
2023/07/04 04:49:02;;;;;;;1.73;1.17;;;16.90;99.90;;;;;;5070391;28;20945;-59
2023/07/04 04:51:30;;;;;;;3.53;1.13;;;17.00;99.90;;;;;;5070439;28;20471;-57
2023/07/04 04:53:57;;;;;;;2.73;1.67;;;17.20;99.90;;;;;;5070900;28;20443;-58
2023/07/04 04:56:24;;;;;;;4.83;1.63;;;17.50;99.90;;;;;;5070978;28;20444;-57
2023/07/04 04:58:51;;;;;;;2.60;1.20;;;17.80;99.90;;;;;;5070010;28;20448;-57
2023/07/04 05:01:21;;;;;;;2.10;1.40;;;18.00;98.00;;;;;;5069910;28;20468;-57
2023/07/04 05:03:51;;;;;;;3.70;1.80;;;18.20;97.00;;;;;;5070554;28;20447;-56
2023/07/04 05:06:18;;;;;;;4.43;1.73;;;18.50;95.80;;;;;;5070012;28;20946;-56
2023/07/04 05:08:45;;;;;;;4.37;1.30;;;18.80;94.10;;;;;;5069764;28;20445;-57
2023/07/04 05:11:13;;;;;;;2.80;1.40;;;18.80;91.70;;;;;;5070081;28;20486;-57
2023/07/04 05:13:41;;;;;;;3.53;1.57;;;18.70;90.60;;;;;;5070559;28;20463;-57
2023/07/04 05:16:09;;;;;;;4.63;1.90;;;18.40;90.40;;;;;;5071265;28;20455;-56
2023/07/04 05:18:37;;;;;;;1.60;0.83;;;18.30;90.20;;;;;;5069464;28;20542;-57
2023/07/04 05:21:08;;;;;;;3.97;1.57;;;18.30;88.60;;;;;;5069506;28;20466;-57
2023/07/04 05:23:37;;;;;;;6.03;1.70;;;18.20;86.80;;;;;;5055988;28;20440;-58
2023/07/04 05:26:06;;;;;;;2.30;1.30;;;18.00;86.00;;;;;;5055971;28;20902;-58
2023/07/04 05:28:33;;;;;;;2.50;1.20;;;17.70;87.00;;;;;;5056471;28;20547;-58
2023/07/04 05:31:01;;;;;;;3.03;1.57;;;17.40;87.50;;;;;;5056098;28;20487;-57
2023/07/04 05:33:28;;;;;;;3.50;1.67;;;17.20;88.40;;;;;;5056264;28;20445;-58
2023/07/04 05:36:04;;;;;;;7.57;1.93;;;17.00;89.90;;;;;;5056067;28;20455;-59
2023/07/04 05:38:31;;;;;;;3.60;1.50;;;16.80;90.50;;;;;;5056502;28;20428;-58
2023/07/04 05:40:58;;;;;;;2.80;1.53;;;16.70;91.20;;;;;;5055414;28;20468;-58
2023/07/04 05:43:25;;;;;;;4.50;1.97;;;16.60;91.70;;;;;;5055713;28;20444;-58
2023/07/04 05:45:53;;;;;;;3.63;1.37;;;16.60;92.10;;;;;;5055596;28;20443;-58
2023/07/04 05:48:20;;;;;;;5.93;2.20;;;16.70;92.50;;;;;;5055741;28;20444;-59
2023/07/04 05:50:54;;;;;;;3.73;1.97;;;16.70;92.60;;;;;;5055277;28;20483;-56
2023/07/04 05:53:24;;;;;;;3.97;1.50;;;16.70;92.70;;;;;;5056762;28;20798;-58
2023/07/04 05:55:51;;;;;;;3.90;1.43;;;16.80;92.70;;;;;;5055190;28;20444;-58
2023/07/04 05:58:18;;;;;;;2.40;1.43;;;16.90;92.60;;;;;;5055215;28;20455;-56
2023/07/04 06:00:47;;;;;;;3.30;1.87;;;17.00;92.50;;;;;;5055189;28;20469;-58
2023/07/04 06:03:16;;;;;;;3.50;2.33;;;17.00;92.80;;;;;;5055375;28;20478;-58
2023/07/04 06:05:43;;;;;;;3.83;1.70;;;17.00;92.60;;;;;;5055382;28;20527;-57
2023/07/04 06:08:10;;;;;;;5.70;1.90;;;17.00;92.90;;;;;;5055738;28;20440;-58
2023/07/04 06:10:38;;;;;;;2.90;1.57;;;17.10;92.90;;;;;;5055491;28;20481;-58
2023/07/04 06:13:05;;;;;;;4.40;1.53;;;17.30;92.60;;;;;;5054730;28;20519;-58
2023/07/04 06:15:32;;;;;;;5.07;1.83;;;17.50;92.00;;;;;;5055731;28;20455;-57
2023/07/04 06:17:59;;;;;;;5.63;1.90;;;17.50;91.80;;;;;;5056183;28;20763;-57
2023/07/04 06:20:26;;;;;;;4.10;1.77;;;17.60;91.50;;;;;;5054973;28;20467;-58
2023/07/04 06:22:52;;;;;;;3.03;1.70;;;17.70;91.10;;;;;;5054965;28;20527;-58
2023/07/04 06:25:19;;;;;;;2.83;1.70;;;17.60;90.70;;;;;;5055025;28;20448;-58
2023/07/04 06:27:47;;;;;;;2.53;1.40;;;17.50;90.80;;;;;;5054463;28;20440;-57
2023/07/04 06:30:14;;;;;;;3.70;1.47;;;17.30;90.80;;;;;;5054415;28;20498;-58
2023/07/04 06:32:41;;;;;;;3.10;1.70;;;17.20;90.90;;;;;;5054745;28;20484;-58
2023/07/04 06:35:09;;;;;;;5.60;1.97;;;17.20;91.20;;;;;;5053283;28;20459;-57
2023/07/04 06:37:36;;;;;;;3.53;1.73;;;17.30;91.00;;;;;;5054272;28;20444;-57
2023/07/04 06:40:03;;;;;;;4.50;1.83;;;17.40;90.80;;;;;;5054729;28;20468;-57
2023/07/04 06:42:33;;;;;;;3.10;1.60;;;17.60;90.40;;;;;;5054588;28;20420;-57
2023/07/04 06:45:01;;;;;;;2.37;1.80;;;17.70;90.00;;;;;;5054414;28;20533;-57
2023/07/04 06:47:27;;;;;;;3.73;1.93;;;17.80;89.50;;;;;;5054275;28;20444;-57
2023/07/04 06:49:55;;;;;;;3.30;1.63;;;17.90;89.20;;;;;;5054459;28;20455;-57
2023/07/04 06:52:21;;;;;;;3.33;2.03;;;18.10;88.10;;;;;;5054471;28;20545;-59
2023/07/04 06:54:50;;;;;;;3.83;1.90;;;18.30;86.80;;;;;;5054604;28;20448;-57
2023/07/04 06:57:17;;;;;;;2.73;2.30;;;18.50;85.20;;;;;;5054718;28;20528;-57
2023/07/04 06:59:45;;;;;;;2.53;1.83;;;18.60;83.50;;;;;;5053806;28;20444;-57
2023/07/04 07:02:14;;;;;;;3.27;2.10;;;18.70;81.90;;;;;;5055190;28;20440;-57
2023/07/04 07:04:41;;;;;;;5.40;2.00;;;18.70;81.20;;;;;;5054937;28;20471;-58
2023/07/04 07:07:09;;;;;;;2.83;1.90;;;18.70;80.60;;;;;;5054788;28;20452;-58
2023/07/04 07:09:37;;;;;;;4.63;2.30;;;18.60;80.50;;;;;;5053631;28;20505;-57
2023/07/04 07:12:05;;;;;;;4.40;2.30;;;18.60;80.40;;;;;;5053982;28;20575;-58
2023/07/04 07:14:32;;;;;;;6.73;2.27;;;18.60;80.20;;;;;;5053884;28;20456;-58
2023/07/04 07:16:59;;;;;;;2.60;2.40;;;18.60;79.70;;;;;;5053712;28;20444;-58
2023/07/04 07:19:27;;;;;;;4.10;2.33;;;18.60;79.60;;;;;;5053762;28;20821;-57
2023/07/04 07:21:54;;;;;;;3.87;2.40;;;18.50;80.00;;;;;;5054176;28;20463;-58
2023/07/04 07:24:20;;;;;;;5.53;2.43;;;18.60;79.90;;;;;;5054201;28;20954;-58
2023/07/04 07:26:47;;;;;;;3.03;2.30;;;18.60;80.00;;;;;;5053762;28;20448;-58
2023/07/04 07:29:14;;;;;;;5.10;3.00;;;18.70;79.40;;;;;;5053254;28;20977;-57
2023/07/04 07:31:41;;;;;;;4.93;2.80;;;18.90;79.20;;;;;;5052943;28;20480;-58
2023/07/04 07:34:07;;;;;;;5.20;2.87;;;19.20;78.60;;;;;;5053804;28;20883;-58
2023/07/04 07:36:37;;;;;;;4.33;3.00;;;19.40;77.40;;;;;;5054262;28;20449;-58
2023/07/04 07:39:06;;;;;;;4.00;2.93;;;19.80;76.40;;;;;;5054533;28;20472;-57
2023/07/04 07:41:36;;;;;;;6.50;3.23;;;20.10;74.50;;;;;;5054060;28;20486;-57
2023/07/04 07:44:03;;;;;;;6.10;3.33;;;20.20;73.00;;;;;;5053385;28;20481;-57
2023/07/04 07:46:30;;;;;;;5.20;3.10;;;20.20;72.20;;;;;;5054033;28;20803;-58
2023/07/04 07:48:57;;;;;;;4.10;2.47;;;20.00;71.30;;;;;;5053742;28;20512;-57
2023/07/04 07:51:24;;;;;;;4.43;3.10;;;19.90;71.10;;;;;;5053736;28;20484;-57
2023/07/04 07:53:54;;;;;;;5.20;3.60;;;19.80;70.50;;;;;;5053298;28;20445;-58
2023/07/04 07:56:23;;;;;;;7.70;2.80;;;19.80;70.50;;;;;;5054153;28;20452;-59
2023/07/04 07:58:50;;;;;;;3.90;2.80;;;19.70;70.10;;;;;;5054867;28;20965;-59
2023/07/04 08:01:19;;;;;;;3.43;2.80;;;19.70;70.20;;;;;;5055454;28;20456;-59
2023/07/04 08:03:47;;;;;;;4.93;3.10;;;19.80;69.90;;;;;;5055812;28;20445;-58
2023/07/04 08:06:21;;;;;;;4.73;3.67;;;19.90;69.70;;;;;;5055524;28;20526;-60
2023/07/04 08:08:48;;;;;;;5.57;3.47;;;20.00;69.50;;;;;;5055409;28;20428;-60
2023/07/04 08:11:17;;;;;;;7.13;3.83;;;20.10;69.10;;;;;;5055109;28;20574;-58
2023/07/04 08:13:45;;;;;;;6.03;3.50;;;20.10;68.50;;;;;;5055189;28;20946;-59
2023/07/04 08:16:12;;;;;;;5.50;3.17;;;20.00;67.80;;;;;;5055846;28;20440;-59
2023/07/04 08:18:40;;;;;;;4.10;2.60;;;19.70;67.60;;;;;;5055639;28;20456;-57
2023/07/04 08:21:06;;;;;;;3.60;2.80;;;19.60;68.30;;;;;;5055959;28;20459;-59
2023/07/04 08:23:33;;;;;;;5.83;2.80;;;19.70;68.50;;;;;;5056501;28;20443;-60
2023/07/04 08:26:00;;;;;;;8.40;2.40;;;19.80;67.80;;;;;;5056256;28;20444;-59
2023/07/04 08:28:28;;;;;;;6.20;3.00;;;20.00;66.70;;;;;;5055387;28;20443;-60
2023/07/04 08:31:03;;;;;;;5.00;2.63;;;20.20;65.70;;;;;;5055984;28;20472;-59
2023/07/04 08:33:30;;;;;;;4.50;2.27;;;20.40;64.30;;;;;;5055006;28;20902;-58
2023/07/04 08:35:58;;;;;;;4.43;2.23;;;20.60;63.30;;;;;;5054404;28;20442;-57
2023/07/04 08:38:26;;;;;;;6.27;2.27;;;20.80;62.10;;;;;;5054309;28;20452;-58
2023/07/04 08:40:53;;;;;;;3.23;2.07;;;20.80;61.20;;;;;;5053152;28;20475;-58
2023/07/04 08:43:25;;;;;;;2.17;1.80;;;20.70;60.80;;;;;;5053431;28;20446;-58
2023/07/04 08:45:54;;;;;;;3.40;2.10;;;20.60;60.40;;;;;;5053866;28;20426;-58
2023/07/04 08:48:22;;;;;;;4.37;2.27;;;20.50;60.50;;;;;;5053746;28;20451;-58
2023/07/04 08:50:50;;;;;;;3.63;1.70;;;20.50;60.40;;;;;;5053736;28;20476;-58
2023/07/04 08:53:18;;;;;;;2.47;1.67;;;20.70;59.90;;;;;;5054346;28;20480;-59
2023/07/04 08:55:56;;;;;;;4.00;2.20;;;20.70;58.90;;;;;;5054508;28;20440;-60
2023/07/04 08:58:27;;;;;;;3.20;1.70;;;20.70;58.50;;;;;;5056811;28;20438;-58
2023/07/04 09:00:58;;;;;;;3.43;1.97;;;20.70;57.50;;;;;;5057332;28;20456;-59
2023/07/04 09:03:31;;;;;;;4.83;1.60;;;20.80;57.10;;;;;;5057299;28;20421;-60
2023/07/04 09:06:06;;;;;;;3.40;1.87;;;21.10;56.30;;;;;;5057671;28;20800;-59
2023/07/04 09:08:55;;;;;;;4.10;1.63;;;21.40;55.40;;;;;;5057572;28;20438;-59
2023/07/04 09:11:24;;;;;;;2.00;1.80;;;21.60;54.20;;;;;;5057172;28;20848;-60
2023/07/04 09:13:57;;;;;;;4.30;2.23;;;21.70;53.50;;;;;;5057280;28;20536;-60
2023/07/04 09:16:31;;;;;;;4.10;2.50;;;21.60;53.00;;;;;;5057052;28;20979;-60
2023/07/04 09:19:01;;;;;;;2.30;1.90;;;21.50;53.30;;;;;;5057239;28;20433;-59
2023/07/04 09:21:30;;;;;;;3.97;2.07;;;21.30;53.50;;;;;;5057592;28;20458;-60
2023/07/04 09:23:59;;;;;;;4.47;2.33;;;21.30;53.70;;;;;;5056619;28;20445;-59
2023/07/04 09:26:32;;;;;;;2.80;2.10;;;21.20;53.80;;;;;;5057321;28;20450;-60
2023/07/04 09:29:00;;;;;;;6.50;2.47;;;21.30;53.60;;;;;;5057160;28;20418;-59
2023/07/04 09:31:30;;;;;;;4.97;2.13;;;21.20;53.20;;;;;;5056764;28;20494;-59
2023/07/04 09:34:01;;;;;;;3.03;2.30;;;21.10;53.20;;;;;;5057399;28;20427;-59
2023/07/04 09:36:40;;;;;;;7.27;2.20;;;21.10;53.20;;;;;;5056910;28;20946;-59
2023/07/04 09:39:08;;;;;;;6.60;2.20;;;21.30;52.60;;;;;;5057066;28;20430;-59
2023/07/04 09:41:37;;;;;;;3.10;1.90;;;21.50;52.10;;;;;;5056433;28;20474;-59
2023/07/04 09:44:16;;;;;;;6.37;2.00;;;21.70;51.60;;;;;;5056739;28;20442;-59
2023/07/04 09:46:50;;;;;;;3.70;2.17;;;22.10;51.00;;;;;;5056477;28;20442;-59
2023/07/04 09:49:23;;;;;;;4.33;1.83;;;22.40;50.30;;;;;;5056538;28;20431;-60
2023/07/04 09:52:04;;;;;;;4.80;2.40;;;22.80;49.70;;;;;;5056646;28;20849;-59
2023/07/04 09:54:32;;;;;;;4.90;2.30;;;22.80;48.90;;;;;;5056527;28;20424;-60
2023/07/04 09:57:19;;;;;;;3.60;1.80;;;22.70;49.00;;;;;;5055829;28;20803;-61
2023/07/04 09:59:46;;;;;;;7.20;2.33;;;22.60;49.30;;;;;;5055854;28;20438;-59
2023/07/04 10:02:18;;;;;;;3.50;2.43;;;22.60;49.30;;;;;;5055291;28;20473;-59
2023/07/04 10:04:50;;;;;;;3.23;2.30;;;22.70;49.60;;;;;;5056069;28;20439;-60
2023/07/04 10:07:19;;;;;;;3.97;2.40;;;22.90;49.30;;;;;;5056113;28;20460;-60
2023/07/04 10:09:51;;;;;;;2.90;2.60;;;22.80;48.70;;;;;;5056135;28;20524;-60
2023/07/04 10:12:19;;;;;;;6.13;2.43;;;22.40;48.70;;;;;;5056645;28;20467;-58
2023/07/04 10:14:47;;;;;;;5.93;2.90;;;22.10;49.40;;;;;;5055872;28;20450;-60
2023/07/04 10:17:21;;;;;;;5.27;1.93;;;22.00;49.90;;;;;;5056073;28;20455;-59
2023/07/04 10:19:49;;;;;;;5.10;2.40;;;22.00;49.90;;;;;;5056038;28;20450;-59
2023/07/04 10:22:25;;;;;;;6.20;2.83;;;21.90;49.90;;;;;;5058378;28;20431;-59
2023/07/04 10:24:52;;;;;;;5.87;2.37;;;22.20;50.00;;;;;;5056559;28;20513;-59
2023/07/04 10:27:21;;;;;;;5.33;2.57;;;22.50;49.40;;;;;;5055445;28;20462;-59
2023/07/04 10:29:52;;;;;;;5.23;3.37;;;22.80;48.90;;;;;;5055118;28;20447;-59
2023/07/04 10:32:22;;;;;;;4.03;2.93;;;23.00;48.00;;;;;;5055489;28;20475;-60
2023/07/04 10:34:50;;;;;;;4.40;2.90;;;23.00;47.50;;;;;;5055122;28;20961;-59
2023/07/04 10:37:23;;;;;;;4.30;2.47;;;22.90;47.50;;;;;;5055494;28;20946;-60
2023/07/04 10:39:53;;;;;;;6.87;3.20;;;22.80;47.60;;;;;;5055588;28;20503;-59
2023/07/04 10:42:28;;;;;;;5.77;2.67;;;22.70;48.00;;;;;;5055251;28;20475;-59
2023/07/04 10:44:57;;;;;;;3.40;2.60;;;22.40;48.40;;;;;;5055227;28;20474;-59
2023/07/04 10:47:28;;;;;;;4.70;2.23;;;22.00;48.80;;;;;;5055187;28;20470;-59
2023/07/04 10:50:00;;;;;;;5.87;2.83;;;21.60;49.30;;;;;;5056416;28;20431;-59
2023/07/04 10:52:31;;;;;;;7.30;3.57;;;21.30;49.90;;;;;;5056728;28;20466;-59
2023/07/04 10:54:59;;;;;;;4.07;2.60;;;21.10;50.30;;;;;;5058457;28;20432;-59
2023/07/04 10:57:30;;;;;;;4.47;2.60;;;20.90;50.60;;;;;;5058589;28;20449;-60
2023/07/04 11:00:04;;;;;;;6.10;2.80;;;20.70;50.70;;;;;;5058775;28;20433;-58
2023/07/04 11:02:37;;;;;;;4.80;3.00;;;20.50;51.00;;;;;;5058915;28;20430;-60
2023/07/04 11:07:34;;;;;;;6.37;3.70;;;20.50;50.60;;;;;;5072422;28;20464;-59
2023/07/04 11:10:05;;;;;;;7.10;3.90;;;20.60;50.40;;;;;;5073686;28;20493;-58
2023/07/04 11:12:34;;;;;;;8.00;3.30;;;20.80;50.40;;;;;;5073180;28;20464;-59
2023/07/04 11:15:04;;;;;;;6.97;3.60;;;20.80;50.30;;;;;;5073761;28;20543;-58
2023/07/04 11:17:34;;;;;;;6.43;3.37;;;20.70;50.50;;;;;;5093779;28;20448;-60
2023/07/04 11:20:11;;;;;;;4.80;3.10;;;20.80;50.80;;;;;;5093395;28;20459;-59
2023/07/04 11:22:55;;;;;;;5.93;3.70;;;20.70;51.10;;;;;;5094806;28;20418;-58
2023/07/04 11:25:32;;;;;;;9.07;5.20;;;20.50;51.40;;;;;;5093713;28;20976;-58
2023/07/04 11:28:19;;;;;;;9.43;3.97;;;20.50;51.80;;;;;;5095909;28;20429;-59
2023/07/04 11:30:48;;;;;;;9.77;3.93;;;20.80;51.80;;;;;;5094492;28;20866;-59
2023/07/04 11:33:42;;;;;;;6.57;3.40;;;21.00;51.40;;;;;;5094147;28;21015;-60
2023/07/04 11:36:18;;;;;;;4.00;2.77;;;21.20;51.10;;;;;;5093345;28;20472;-59
2023/07/04 11:38:52;;;;;;;8.33;3.53;;;21.10;51.00;;;;;;5093925;28;20798;-59
2023/07/04 11:41:27;;;;;;;8.40;3.30;;;20.90;51.10;;;;;;5093689;28;20460;-59
2023/07/04 11:43:55;;;;;;;6.53;3.50;;;20.70;51.50;;;;;;5094570;28;20442;-61
2023/07/04 11:46:25;;;;;;;7.47;4.00;;;20.40;51.80;;;;;;5093854;28;20478;-59
2023/07/04 11:48:55;;;;;;;7.33;3.70;;;20.20;52.40;;;;;;5093512;28;20496;-60
2023/07/04 11:51:24;;;;;;;6.13;3.47;;;20.00;53.00;;;;;;5095436;28;20430;-59
2023/07/04 11:53:56;;;;;;;6.40;3.70;;;19.80;53.70;;;;;;5093474;28;20570;-60
2023/07/04 11:56:36;;;;;;;7.23;3.60;;;19.60;54.10;;;;;;5094335;28;20462;-59
2023/07/04 11:59:27;;;;;;;9.50;5.20;;;19.50;54.60;;;;;;5093418;28;20429;-60
2023/07/04 12:02:14;;;;;;;6.67;3.73;;;19.40;54.90;;;;;;5092903;28;20960;-59
2023/07/04 12:04:50;;;;;;;12.03;3.97;;;19.40;55.10;;;;;;5093043;28;20446;-60
2023/07/04 12:07:33;;;;;;;6.70;4.27;;;19.40;55.40;;;;;;5093103;28;20474;-59
2023/07/04 12:10:08;;;;;;;6.27;4.17;;;19.30;55.70;;;;;;5093006;28;20438;-59
2023/07/04 12:12:37;;;;;;;6.83;3.70;;;19.20;57.10;;;;;;5093822;28;20465;-58
2023/07/04 12:15:08;;;;;;;7.03;4.10;;;18.90;57.70;;;;;;5093920;28;20872;-59
2023/07/04 12:17:38;;;;;;;6.30;3.87;;;18.70;59.40;;;;;;5092754;28;20775;-58
2023/07/04 12:20:09;;;;;;;4.90;3.50;;;18.40;60.70;;;;;;5093086;28;20827;-59
2023/07/04 12:22:37;;;;;;;6.77;4.63;;;18.30;61.20;;;;;;5092531;28;20426;-58
2023/07/04 12:25:20;;;;;;;7.53;4.00;;;18.20;61.30;;;;;;5092737;28;20442;-58
2023/07/04 12:27:46;;;;;;;4.97;3.63;;;18.20;61.30;;;;;;5094012;28;20427;-58
2023/07/04 12:30:14;;;;;;;4.67;3.50;;;18.50;61.20;;;;;;5093123;28;20448;-58
2023/07/04 12:32:41;;;;;;;5.33;2.97;;;19.10;59.90;;;;;;5095365;28;20517;-59
2023/07/04 12:35:19;;;;;;;6.37;3.57;;;19.90;58.50;;;;;;5097052;28;20452;-59
2023/07/04 12:37:50;;;;;;;6.57;3.10;;;20.70;56.90;;;;;;5097032;28;20438;-59
2023/07/04 12:40:18;;;;;;;6.83;3.50;;;21.20;55.40;;;;;;5097037;28;20464;-59
2023/07/04 12:42:46;;;;;;;10.03;4.10;;;21.50;54.50;;;;;;5096865;28;20768;-60
2023/07/04 12:45:17;;;;;;;8.13;3.40;;;21.80;53.50;;;;;;5096547;28;20446;-59
2023/07/04 12:47:45;;;;;;;4.60;3.10;;;21.70;53.40;;;;;;5097246;28;20849;-59
2023/07/04 12:50:16;;;;;;;7.50;3.53;;;21.60;53.60;;;;;;5097945;28;20457;-59
2023/07/04 12:52:45;;;;;;;3.83;2.43;;;21.50;54.10;;;;;;5097051;28;20468;-59
2023/07/04 12:55:21;;;;;;;6.07;2.43;;;21.40;54.40;;;;;;5097802;28;20793;-59
2023/07/04 12:57:49;;;;;;;5.23;2.33;;;21.40;54.20;;;;;;5097081;28;20785;-60
2023/07/04 13:00:25;;;;;;;5.67;2.83;;;21.40;53.90;;;;;;5096165;28;20822;-59